Time;durP1;ratioP1;P1;durP2;ratioP2;P2;SDS_P1;SDS_P2;PMS_P1;PMS_P2;Temp;Humidity;BMP_temperature;BMP_pressure;BME280_temperature;BME280_humidity;BME280_pressure;Samples;Min_cycle;Max_cycle;Signal;HPM_P1;HPM_P2
2022/04/06 00:00:23;;;;;;;85.55;45.60;;;256.10;1561.60;;;;;;5093745;28;20020;-59
2022/04/06 00:02:49;;;;;;;81.60;44.05;;;256.00;1561.60;;;;;;5093642;28;20526;-59
2022/04/06 00:05:14;;;;;;;72.30;41.30;;;256.00;1587.20;;;;;;5093663;28;20106;-59
2022/04/06 00:07:41;;;;;;;67.05;38.03;;;256.00;1561.60;;;;;;5093458;28;20024;-59
2022/04/06 00:10:09;;;;;;;65.30;34.30;;;256.00;1587.20;;;;;;5093306;28;20025;-59
2022/04/06 00:12:37;;;;;;;68.22;35.60;;;256.00;1561.60;;;;;;5093151;28;20092;-60
2022/04/06 00:15:05;;;;;;;66.35;36.30;;;231.30;1561.60;;;;;;5093414;28;20020;-59
2022/04/06 00:17:31;;;;;;;67.05;35.15;;;256.00;1561.60;;;;;;5093500;28;20097;-59
2022/04/06 00:19:56;;;;;;;56.95;33.42;;;256.00;1561.60;;;;;;5093106;28;20449;-60
2022/04/06 00:22:22;;;;;;;53.88;32.53;;;256.00;1561.60;;;;;;5093121;28;20102;-59
2022/04/06 00:24:48;;;;;;;55.65;31.80;;;231.30;1587.20;;;;;;5093504;28;20050;-59
2022/04/06 00:27:14;;;;;;;45.53;28.92;;;256.00;1587.20;;;;;;5093295;28;20027;-60
2022/04/06 00:29:40;;;;;;;45.00;28.77;;;256.00;1561.60;;;;;;5091618;28;20032;-60
2022/04/06 00:32:06;;;;;;;47.63;29.73;;;231.30;1561.60;;;;;;5093329;28;20051;-60
2022/04/06 00:37:16;;;;;;;42.33;27.00;;;256.00;1561.60;;;;;;5093282;28;20031;-60
2022/04/06 00:39:42;;;;;;;44.22;25.95;;;231.20;1561.60;;;;;;5093913;28;20039;-60
2022/04/06 00:42:08;;;;;;;42.42;25.88;;;231.30;1561.60;;;;;;5096996;28;20420;-60
2022/04/06 00:44:34;;;;;;;41.53;27.15;;;256.00;1561.60;;;;;;5097016;28;20036;-60
2022/04/06 00:47:03;;;;;;;39.97;27.08;;;231.30;1536.00;;;;;;5097188;28;20532;-60
2022/04/06 00:49:29;;;;;;;46.33;28.83;;;231.20;1561.60;;;;;;5096933;28;20042;-60
2022/04/06 00:51:55;;;;;;;44.60;27.58;;;231.30;1561.60;;;;;;5096632;28;20095;-60
2022/04/06 00:54:22;;;;;;;45.03;27.83;;;256.00;1536.00;;;;;;5096670;28;20028;-60
2022/04/06 00:56:49;;;;;;;46.03;28.55;;;256.10;1536.00;;;;;;5096645;28;20020;-60
2022/04/06 00:59:19;;;;;;;42.63;27.20;;;256.00;1536.00;;;;;;5096608;28;20027;-60
2022/04/06 01:01:49;;;;;;;47.78;27.88;;;256.10;1510.40;;;;;;5096584;28;20023;-60
2022/04/06 01:04:16;;;;;;;40.78;26.52;;;256.10;1536.00;;;;;;5096637;28;20054;-60
2022/04/06 01:06:42;;;;;;;44.83;27.20;;;256.10;1536.00;;;;;;5096434;28;20177;-60
2022/04/06 01:09:08;;;;;;;51.03;30.52;;;256.20;1536.00;;;;;;5096557;28;20020;-60
2022/04/06 01:11:34;;;;;;;47.72;27.75;;;256.10;1536.00;;;;;;5096251;28;20034;-60
2022/04/06 01:14:02;;;;;;;49.53;28.48;;;256.10;1536.00;;;;;;5096220;28;20415;-60
2022/04/06 01:16:28;;;;;;;54.17;30.63;;;256.00;1536.00;;;;;;5096424;28;20044;-60
2022/04/06 01:18:54;;;;;;;51.50;31.67;;;256.00;1536.00;;;;;;5096447;28;20028;-60
2022/04/06 01:21:21;;;;;;;52.35;31.85;;;256.00;1561.60;;;;;;5096108;28;20465;-60
2022/04/06 01:23:47;;;;;;;53.85;32.20;;;256.00;1536.00;;;;;;5096035;28;20029;-60
2022/04/06 01:26:14;;;;;;;55.85;33.63;;;231.20;1561.60;;;;;;5095924;28;20085;-60
2022/04/06 01:28:41;;;;;;;55.85;32.67;;;231.30;1561.60;;;;;;5095559;28;20043;-60
2022/04/06 01:31:07;;;;;;;55.80;32.50;;;231.20;1561.60;;;;;;5095996;28;20031;-60
2022/04/06 01:33:33;;;;;;;57.20;33.65;;;231.30;1561.60;;;;;;5095706;28;20054;-60
2022/04/06 01:36:00;;;;;;;66.43;37.83;;;231.30;1561.60;;;;;;5095881;28;20020;-60
2022/04/06 01:38:26;;;;;;;72.03;39.92;;;231.20;1587.20;;;;;;5095649;28;20073;-60
2022/04/06 01:40:53;;;;;;;80.43;46.55;;;231.20;1561.60;;;;;;5095710;28;20487;-60
2022/04/06 01:43:19;;;;;;;97.70;58.83;;;231.20;1561.60;;;;;;5095790;28;20024;-60
2022/04/06 01:45:44;;;;;;;80.53;47.50;;;231.10;1587.20;;;;;;5095752;28;20080;-60
2022/04/06 01:48:10;;;;;;;72.50;43.55;;;231.20;1561.60;;;;;;5095727;28;20039;-60
2022/04/06 01:53:20;;;;;;;60.05;38.45;;;231.00;1587.20;;;;;;5095470;28;20043;-60
2022/04/06 01:55:46;;;;;;;57.72;35.85;;;231.20;1561.60;;;;;;5095503;28;20020;-60
2022/04/06 01:58:12;;;;;;;53.00;34.83;;;231.00;1587.20;;;;;;5095378;28;20043;-60
2022/04/06 02:00:39;;;;;;;57.30;35.47;;;231.00;1587.20;;;;;;5095379;28;20031;-60
2022/04/06 02:03:05;;;;;;;57.13;34.53;;;231.10;1561.60;;;;;;5095412;28;20024;-60
2022/04/06 02:05:33;;;;;;;52.50;34.50;;;230.90;1587.20;;;;;;5095401;28;20020;-60
2022/04/06 02:07:59;;;;;;;55.08;34.00;;;231.00;1561.60;;;;;;5095255;28;20043;-60
2022/04/06 02:10:26;;;;;;;56.83;36.45;;;231.00;1561.60;;;;;;5095396;28;20440;-60
2022/04/06 02:12:55;;;;;;;61.70;38.03;;;230.90;1587.20;;;;;;5095069;28;20107;-60
2022/04/06 02:15:22;;;;;;;61.33;36.28;;;230.90;1587.20;;;;;;5095282;28;20020;-60
2022/04/06 02:17:48;;;;;;;63.45;37.10;;;231.00;1587.20;;;;;;5095192;28;20469;-60
2022/04/06 02:20:14;;;;;;;60.45;37.63;;;230.80;1587.20;;;;;;5095049;28;20032;-60
2022/04/06 02:22:41;;;;;;;64.05;38.90;;;230.80;1587.20;;;;;;5094862;28;20377;-60
2022/04/06 02:25:08;;;;;;;61.17;37.13;;;230.80;1612.80;;;;;;5095019;28;20024;-60
2022/04/06 02:27:33;;;;;;;61.63;38.08;;;230.70;1612.80;;;;;;5094964;28;20031;-60
2022/04/06 02:29:59;;;;;;;57.83;35.95;;;230.70;1612.80;;;;;;5094695;28;20370;-60
2022/04/06 02:32:25;;;;;;;58.00;35.83;;;230.70;1612.80;;;;;;5094103;28;20040;-60
2022/04/06 02:34:50;;;;;;;61.75;36.47;;;230.60;1612.80;;;;;;5095037;28;20461;-60
2022/04/06 02:37:16;;;;;;;59.25;36.15;;;230.60;1612.80;;;;;;5094897;28;20027;-60
2022/04/06 02:39:42;;;;;;;60.75;36.97;;;230.60;1612.80;;;;;;5095401;28;20024;-60
2022/04/06 02:42:08;;;;;;;58.58;36.22;;;230.40;1638.40;;;;;;5094807;28;20040;-60
2022/04/06 02:44:34;;;;;;;65.25;37.53;;;230.60;1638.40;;;;;;5094603;28;20032;-60
2022/04/06 02:47:00;;;;;;;61.38;36.85;;;230.60;1612.80;;;;;;5094619;28;20103;-60
2022/04/06 02:49:27;;;;;;;65.47;40.30;;;230.40;1638.40;;;;;;5094451;28;20050;-60
2022/04/06 02:51:52;;;;;;;85.63;47.72;;;230.50;1638.40;;;;;;5094476;28;20016;-60
2022/04/06 02:54:18;;;;;;;87.75;50.38;;;230.50;1638.40;;;;;;5094603;28;20380;-60
2022/04/06 02:56:44;;;;;;;95.22;50.95;;;230.40;1638.40;;;;;;5095005;28;20341;-60
2022/04/06 02:59:10;;;;;;;89.40;49.38;;;230.40;1638.40;;;;;;5094341;28;20028;-61
2022/04/06 03:01:36;;;;;;;83.90;49.83;;;230.40;1612.80;;;;;;5094466;28;20024;-60
2022/04/06 03:04:01;;;;;;;87.45;49.72;;;230.40;1638.40;;;;;;5094031;28;20027;-61
2022/04/06 03:06:27;;;;;;;89.07;51.40;;;230.40;1638.40;;;;;;5094253;28;20016;-60
2022/04/06 03:08:54;;;;;;;244.75;57.75;;;230.50;1638.40;;;;;;5094234;28;20020;-61
2022/04/06 03:11:21;;;;;;;117.07;48.92;;;230.60;1638.40;;;;;;5094222;28;20484;-60
2022/04/06 03:13:47;;;;;;;78.60;47.15;;;230.60;1612.80;;;;;;5094095;28;20032;-60
2022/04/06 03:16:13;;;;;;;79.28;47.13;;;230.60;1612.80;;;;;;5094041;28;20422;-60
2022/04/06 03:18:38;;;;;;;73.47;45.63;;;230.50;1612.80;;;;;;5094215;28;20026;-60
2022/04/06 03:21:04;;;;;;;72.60;43.78;;;230.50;1612.80;;;;;;5094275;28;20047;-60
2022/04/06 03:23:30;;;;;;;72.60;43.53;;;230.40;1612.80;;;;;;5094015;28;20042;-60
2022/04/06 03:25:55;;;;;;;82.65;46.15;;;230.50;1638.40;;;;;;5094048;28;20026;-60
2022/04/06 03:28:21;;;;;;;81.63;46.75;;;230.40;1638.40;;;;;;5094231;28;20099;-61
2022/04/06 03:30:47;;;;;;;118.60;63.88;;;230.40;1638.40;;;;;;5093956;28;20454;-60
2022/04/06 03:33:15;;;;;;;128.18;66.43;;;230.40;1638.40;;;;;;5093585;28;20067;-60
2022/04/06 03:35:41;;;;;;;134.85;69.88;;;230.40;1664.00;;;;;;5093829;28;20081;-60
2022/04/06 03:38:07;;;;;;;113.68;60.47;;;205.70;1664.00;;;;;;5093915;28;20032;-60
2022/04/06 03:40:32;;;;;;;118.50;62.08;;;205.70;1664.00;;;;;;5093977;28;20377;-60
2022/04/06 03:42:58;;;;;;;115.68;63.38;;;205.70;1664.00;;;;;;5093769;28;20518;-60
2022/04/06 03:45:24;;;;;;;115.13;60.80;;;205.70;1664.00;;;;;;5093727;28;20035;-60
2022/04/06 03:47:50;;;;;;;124.30;65.18;;;205.70;1689.60;;;;;;5093863;28;20031;-60
2022/04/06 03:50:15;;;;;;;123.97;62.17;;;205.70;1689.60;;;;;;5093797;28;20385;-61
2022/04/06 03:52:41;;;;;;;131.23;63.58;;;205.70;1715.20;;;;;;5093538;28;20055;-61
2022/04/06 03:55:08;;;;;;;111.45;57.85;;;205.70;1715.20;;;;;;5093795;28;20020;-61
2022/04/06 03:57:36;;;;;;;105.00;55.72;;;205.70;1715.20;;;;;;5093710;28;20026;-60
2022/04/06 04:00:07;;;;;;;99.82;55.28;;;205.70;1715.20;;;;;;5094102;28;20035;-60
2022/04/06 04:02:33;;;;;;;116.43;60.03;;;205.70;1715.20;;;;;;5093464;28;20074;-60
2022/04/06 04:05:00;;;;;;;117.47;59.85;;;205.70;1740.80;;;;;;5093612;28;20021;-60
2022/04/06 04:07:26;;;;;;;130.73;61.05;;;205.60;1715.20;;;;;;5093533;28;20035;-60
2022/04/06 04:09:52;;;;;;;108.18;56.83;;;205.60;1715.20;;;;;;5093613;28;20103;-60
2022/04/06 04:12:18;;;;;;;103.72;56.42;;;205.60;1715.20;;;;;;5093532;28;20043;-60
2022/04/06 04:14:45;;;;;;;100.15;51.92;;;205.50;1715.20;;;;;;5094376;28;20529;-61
2022/04/06 04:17:11;;;;;;;91.03;50.83;;;205.50;1715.20;;;;;;5097394;28;20374;-60
2022/04/06 04:19:37;;;;;;;95.75;49.22;;;205.50;1740.80;;;;;;5097205;28;20028;-60
2022/04/06 04:22:03;;;;;;;87.35;47.83;;;205.50;1715.20;;;;;;5097150;28;20020;-60
2022/04/06 04:24:29;;;;;;;86.82;49.55;;;205.50;1715.20;;;;;;5097180;28;20120;-60
2022/04/06 04:26:54;;;;;;;119.55;67.82;;;205.50;1715.20;;;;;;5097167;28;20048;-60
2022/04/06 04:29:20;;;;;;;99.05;49.75;;;205.60;1715.20;;;;;;5097074;28;20031;-60
2022/04/06 04:31:47;;;;;;;87.90;43.28;;;205.60;1740.80;;;;;;5096846;28;20027;-61
2022/04/06 04:34:13;;;;;;;69.68;41.92;;;205.60;1740.80;;;;;;5097060;28;20097;-60
2022/04/06 04:36:39;;;;;;;69.63;40.42;;;205.60;1740.80;;;;;;5097034;28;20401;-61
2022/04/06 04:39:05;;;;;;;73.85;40.83;;;205.60;1740.80;;;;;;5097141;28;20032;-60
2022/04/06 04:41:31;;;;;;;72.78;44.35;;;205.60;1740.80;;;;;;5096442;28;20420;-60
2022/04/06 04:43:57;;;;;;;83.88;43.65;;;205.60;1766.40;;;;;;5097046;28;20385;-61
2022/04/06 04:46:23;;;;;;;90.18;47.13;;;205.50;1740.80;;;;;;5097055;28;20358;-61
2022/04/06 04:48:49;;;;;;;101.15;48.55;;;205.50;1740.80;;;;;;5097055;28;20032;-60
2022/04/06 04:51:15;;;;;;;82.00;45.90;;;205.60;1766.40;;;;;;5096601;28;20035;-61
2022/04/06 04:53:44;;;;;;;71.97;41.70;;;205.50;1740.80;;;;;;5096460;28;20539;-61
2022/04/06 04:56:10;;;;;;;60.28;36.15;;;205.50;1740.80;;;;;;5096546;28;20107;-61
2022/04/06 04:58:36;;;;;;;64.45;37.22;;;205.60;1740.80;;;;;;5096394;28;20032;-61
2022/04/06 05:01:02;;;;;;;69.00;38.58;;;205.60;1740.80;;;;;;5096712;28;20066;-61
2022/04/06 05:03:28;;;;;;;65.13;39.70;;;205.70;1740.80;;;;;;5096563;28;20055;-60
2022/04/06 05:05:56;;;;;;;60.90;37.03;;;230.40;1715.20;;;;;;5096473;28;20099;-60
2022/04/06 05:08:23;;;;;;;60.42;34.03;;;230.50;1715.20;;;;;;5096423;28;20036;-60
2022/04/06 05:10:49;;;;;;;62.72;35.75;;;230.50;1689.60;;;;;;5096224;28;20024;-61
2022/04/06 05:13:17;;;;;;;62.05;34.45;;;230.60;1715.20;;;;;;5095851;28;20036;-61
2022/04/06 05:15:46;;;;;;;60.90;33.25;;;230.70;1689.60;;;;;;5096384;28;20486;-60
2022/04/06 05:18:12;;;;;;;55.35;32.97;;;230.70;1689.60;;;;;;5095939;28;20115;-60
2022/04/06 05:20:37;;;;;;;52.75;31.63;;;230.70;1689.60;;;;;;5096197;28;20434;-61
2022/04/06 05:23:03;;;;;;;68.63;35.65;;;230.80;1689.60;;;;;;5096202;28;20020;-61
2022/04/06 05:25:29;;;;;;;62.30;38.78;;;230.90;1689.60;;;;;;5095650;28;20039;-61
2022/04/06 05:27:56;;;;;;;65.68;38.38;;;230.90;1689.60;;;;;;5095916;28;20057;-61
2022/04/06 05:30:24;;;;;;;64.32;37.42;;;231.00;1689.60;;;;;;5095430;28;20534;-59
2022/04/06 05:32:52;;;;;;;60.90;37.20;;;231.10;1689.60;;;;;;5095203;28;20040;-60
2022/04/06 05:35:18;;;;;;;59.55;36.50;;;231.10;1664.00;;;;;;5095138;28;20024;-60
2022/04/06 05:37:45;;;;;;;56.60;30.58;;;231.20;1664.00;;;;;;5095258;28;20032;-60
2022/04/06 05:40:13;;;;;;;55.35;31.80;;;231.30;1664.00;;;;;;5094986;28;20539;-60
2022/04/06 05:42:39;;;;;;;52.00;31.60;;;256.00;1664.00;;;;;;5095142;28;20028;-60
2022/04/06 05:45:08;;;;;;;49.20;29.10;;;256.10;1664.00;;;;;;5095597;28;20119;-60
2022/04/06 05:47:35;;;;;;;48.25;28.25;;;256.20;1638.40;;;;;;5095842;28;20028;-60
2022/04/06 05:50:03;;;;;;;45.58;28.70;;;256.20;1638.40;;;;;;5095650;28;20028;-60
2022/04/06 05:52:28;;;;;;;39.95;25.88;;;256.40;1638.40;;;;;;5094146;28;20428;-60
2022/04/06 05:54:55;;;;;;;44.92;25.27;;;256.50;1638.40;;;;;;5095118;28;20035;-60
2022/04/06 05:57:21;;;;;;;36.38;23.67;;;256.50;1638.40;;;;;;5094980;28;20103;-60
2022/04/06 05:59:47;;;;;;;36.78;24.13;;;256.60;1612.80;;;;;;5094940;28;20068;-62
2022/04/06 06:02:13;;;;;;;44.88;23.40;;;256.80;1612.80;;;;;;5095449;28;20097;-60
2022/04/06 06:04:39;;;;;;;35.38;21.92;;;281.60;1612.80;;;;;;5095261;28;20461;-60
2022/04/06 06:07:06;;;;;;;29.58;20.05;;;281.80;1587.20;;;;;;5095294;28;20154;-60
2022/04/06 06:09:32;;;;;;;28.08;16.80;;;282.00;1536.00;;;;;;5095070;28;20032;-60
2022/04/06 06:11:59;;;;;;;31.63;16.15;;;282.10;1536.00;;;;;;5095344;28;20024;-60
2022/04/06 06:14:26;;;;;;;20.40;14.32;;;282.30;1510.40;;;;;;5094866;28;20036;-61
2022/04/06 06:16:52;;;;;;;23.35;15.40;;;282.40;1459.20;;;;;;5095100;28;20020;-61
2022/04/06 06:19:18;;;;;;;24.55;15.50;;;307.20;1484.80;;;;;;5095014;28;20028;-61
2022/04/06 06:21:44;;;;;;;33.95;15.55;;;307.30;1484.80;;;;;;5094133;28;20077;-61
2022/04/06 06:24:10;;;;;;;25.50;14.35;;;307.40;1484.80;;;;;;5094333;28;20020;-61
2022/04/06 06:26:37;;;;;;;21.15;14.75;;;307.60;1459.20;;;;;;5094827;28;20028;-61
2022/04/06 06:29:03;;;;;;;22.58;13.98;;;307.80;1433.60;;;;;;5095085;28;20024;-61
2022/04/06 06:31:29;;;;;;;28.38;15.98;;;307.90;1408.00;;;;;;5094566;28;20024;-62
2022/04/06 06:33:56;;;;;;;25.10;14.80;;;308.00;1408.00;;;;;;5094998;28;20477;-63
2022/04/06 06:36:23;;;;;;;24.02;14.32;;;332.80;1408.00;;;;;;5094779;28;20016;-64
2022/04/06 06:38:49;;;;;;;25.70;14.02;;;332.90;1408.00;;;;;;5093865;28;20373;-63
2022/04/06 06:41:15;;;;;;;22.10;13.00;;;333.00;1408.00;;;;;;5094494;28;20023;-64
2022/04/06 06:43:41;;;;;;;31.38;13.75;;;333.10;1408.00;;;;;;5094863;28;20631;-64
2022/04/06 06:46:08;;;;;;;28.35;15.80;;;333.20;1433.60;;;;;;5094676;28;20103;-64
2022/04/06 06:48:34;;;;;;;24.58;14.90;;;333.30;1408.00;;;;;;5094688;28;20036;-64
2022/04/06 06:51:00;;;;;;;28.40;14.90;;;333.50;1382.40;;;;;;5094611;28;20363;-63
2022/04/06 06:53:25;;;;;;;34.13;14.70;;;333.60;1356.80;;;;;;5093845;28;20393;-63
2022/04/06 06:55:51;;;;;;;23.55;13.02;;;358.40;1356.80;;;;;;5094645;28;20354;-63
2022/04/06 06:58:17;;;;;;;21.38;12.25;;;358.50;1331.20;;;;;;5094389;28;20027;-64
2022/04/06 07:00:42;;;;;;;17.25;10.95;;;358.70;1305.60;;;;;;5094521;28;20028;-64
2022/04/06 07:03:08;;;;;;;20.92;11.23;;;358.90;1305.60;;;;;;5094442;28;20028;-64
2022/04/06 07:05:34;;;;;;;20.70;11.73;;;359.10;1280.00;;;;;;5094238;28;20024;-64
2022/04/06 07:08:02;;;;;;;17.33;10.13;;;359.30;1280.00;;;;;;5094134;28;20107;-64
2022/04/06 07:10:31;;;;;;;19.70;9.02;;;384.10;1228.80;;;;;;5094306;28;20065;-63
2022/04/06 07:12:58;;;;;;;24.00;9.57;;;384.20;1228.80;;;;;;5093822;28;20085;-64
2022/04/06 07:15:24;;;;;;;20.40;9.48;;;384.50;1203.20;;;;;;5094504;28;20182;-64
2022/04/06 07:17:57;;;;;;;20.70;9.35;;;384.80;1203.20;;;;;;5094422;28;20016;-63
2022/04/06 07:20:29;;;;;;;15.70;8.52;;;409.60;1203.20;;;;;;5094081;28;20465;-64
2022/04/06 07:22:54;;;;;;;19.15;7.75;;;409.90;1152.00;;;;;;5094037;28;20077;-63
2022/04/06 07:25:20;;;;;;;15.70;8.52;;;410.00;1177.60;;;;;;5093945;28;20370;-63
2022/04/06 07:27:46;;;;;;;13.35;7.47;;;410.30;1152.00;;;;;;5094047;28;20024;-64
2022/04/06 07:30:13;;;;;;;11.77;7.30;;;435.20;1100.80;;;;;;5094056;28;20046;-64
2022/04/06 07:32:39;;;;;;;13.07;7.10;;;435.40;1100.80;;;;;;5093881;28;20075;-64
2022/04/06 07:35:06;;;;;;;16.98;6.60;;;435.60;1075.20;;;;;;5093951;28;20048;-64
2022/04/06 07:37:54;;;;;;;15.95;7.53;;;435.70;1049.60;;;;;;5093917;28;20032;-64
2022/04/06 07:40:23;;;;;;;10.35;6.38;;;436.00;1075.20;;;;;;5093987;28;20065;-64
2022/04/06 07:42:50;;;;;;;14.38;6.78;;;460.80;1075.20;;;;;;5094287;28;20031;-63
2022/04/06 07:45:17;;;;;;;14.73;7.63;;;460.90;1024.00;;;;;;5094206;28;20403;-64
2022/04/06 07:47:45;;;;;;;14.07;6.65;;;461.20;1024.00;;;;;;5093836;28;20354;-64
2022/04/06 07:50:14;;;;;;;15.18;6.78;;;461.30;998.40;;;;;;5096903;28;20031;-64
2022/04/06 07:52:41;;;;;;;11.23;6.40;;;461.50;998.40;;;;;;5097664;28;20065;-64
2022/04/06 07:55:08;;;;;;;10.13;6.28;;;461.60;972.80;;;;;;5097912;28;20111;-63
2022/04/06 07:57:36;;;;;;;18.48;7.70;;;486.40;972.80;;;;;;5097914;28;20074;-64
2022/04/06 08:00:08;;;;;;;15.98;7.57;;;486.50;921.60;;;;;;5097665;28;20028;-64
2022/04/06 08:02:33;;;;;;;12.90;6.10;;;486.60;870.40;;;;;;5097607;28;20028;-64
2022/04/06 08:04:59;;;;;;;11.40;7.47;;;486.80;896.00;;;;;;5097595;28;20024;-64
2022/04/06 08:07:25;;;;;;;13.98;7.90;;;486.90;921.60;;;;;;5097526;28;20102;-63
2022/04/06 08:09:51;;;;;;;14.93;7.45;;;487.10;870.40;;;;;;5097726;28;20031;-64
2022/04/06 08:12:17;;;;;;;12.63;7.03;;;487.10;819.20;;;;;;5097822;28;20461;-64
2022/04/06 08:14:42;;;;;;;10.52;5.28;;;487.30;819.20;;;;;;5097566;28;20030;-64
2022/04/06 08:17:08;;;;;;;10.95;5.38;;;512.00;819.20;;;;;;5097205;28;20051;-64
2022/04/06 08:19:34;;;;;;;14.57;6.65;;;512.10;844.80;;;;;;5097648;28;20036;-64
2022/04/06 08:22:00;;;;;;;10.65;6.68;;;512.20;793.60;;;;;;5097469;28;20028;-64
2022/04/06 08:24:27;;;;;;;18.52;6.90;;;512.30;819.20;;;;;;5096002;28;20028;-64
2022/04/06 08:26:53;;;;;;;13.38;5.38;;;512.40;819.20;;;;;;5097266;28;20037;-65
2022/04/06 08:29:19;;;;;;;9.77;6.07;;;512.50;793.60;;;;;;5097261;28;20024;-64
2022/04/06 08:31:44;;;;;;;9.32;6.15;;;512.60;793.60;;;;;;5097463;28;20035;-64
2022/04/06 08:34:10;;;;;;;16.88;8.57;;;512.70;793.60;;;;;;5097098;28;20435;-64
2022/04/06 08:36:36;;;;;;;10.57;7.72;;;512.80;844.80;;;;;;5096990;28;20030;-64
2022/04/06 08:39:02;;;;;;;12.38;6.82;;;512.90;870.40;;;;;;5096997;28;20020;-64
2022/04/06 08:41:30;;;;;;;14.68;7.05;;;537.60;844.80;;;;;;5097109;28;20016;-64
2022/04/06 08:43:59;;;;;;;11.20;7.57;;;537.60;844.80;;;;;;5097115;28;20051;-64
2022/04/06 08:46:25;;;;;;;12.73;8.05;;;537.80;844.80;;;;;;5095372;28;20048;-64
2022/04/06 08:48:51;;;;;;;15.68;9.00;;;537.80;844.80;;;;;;5096808;28;20020;-64
2022/04/06 08:51:18;;;;;;;17.88;9.90;;;537.90;844.80;;;;;;5096719;28;20103;-64
2022/04/06 08:53:45;;;;;;;14.18;8.48;;;537.90;844.80;;;;;;5096474;28;20028;-64
2022/04/06 08:56:12;;;;;;;17.23;9.32;;;538.00;844.80;;;;;;5096652;28;20416;-63
2022/04/06 08:58:39;;;;;;;14.38;8.55;;;538.10;844.80;;;;;;5096747;28;20052;-64
2022/04/06 09:01:06;;;;;;;11.80;8.60;;;538.20;844.80;;;;;;5095973;28;20043;-64
2022/04/06 09:03:32;;;;;;;13.43;7.72;;;538.30;844.80;;;;;;5096646;28;20031;-64
2022/04/06 09:06:02;;;;;;;14.90;8.27;;;538.30;819.20;;;;;;5096360;28;20020;-63
2022/04/06 09:08:40;;;;;;;17.60;7.75;;;538.50;819.20;;;;;;5096312;28;20103;-64
2022/04/06 09:11:10;;;;;;;14.10;7.90;;;563.20;844.80;;;;;;5096533;28;20024;-64
2022/04/06 09:13:37;;;;;;;12.23;8.02;;;563.30;844.80;;;;;;5096447;28;20465;-64
2022/04/06 09:16:07;;;;;;;14.48;7.45;;;563.30;819.20;;;;;;5096509;28;20020;-64
2022/04/06 09:18:44;;;;;;;10.52;7.38;;;563.40;793.60;;;;;;5096325;28;20410;-64
2022/04/06 09:21:12;;;;;;;8.90;6.40;;;563.50;793.60;;;;;;5096391;28;20044;-64
2022/04/06 09:23:38;;;;;;;12.35;6.88;;;563.50;793.60;;;;;;5096306;28;20070;-64
2022/04/06 09:26:08;;;;;;;18.27;6.63;;;563.50;793.60;;;;;;5095953;28;20024;-65
2022/04/06 09:28:48;;;;;;;9.48;5.65;;;563.50;793.60;;;;;;5096754;28;20042;-64
2022/04/06 09:31:15;;;;;;;9.43;5.55;;;563.60;793.60;;;;;;5096120;28;20022;-67
2022/04/06 09:33:43;;;;;;;12.63;5.22;;;563.70;768.00;;;;;;5095871;28;20121;-66
2022/04/06 09:36:20;;;;;;;10.93;4.78;;;563.90;742.40;;;;;;5095918;28;20028;-66
2022/04/06 09:38:48;;;;;;;15.57;5.50;;;563.90;742.40;;;;;;5095988;28;20024;-66
2022/04/06 09:41:15;;;;;;;8.07;4.68;;;564.00;742.40;;;;;;5095995;28;20027;-67
2022/04/06 09:43:42;;;;;;;9.45;4.50;;;564.10;742.40;;;;;;5095644;28;20032;-66
2022/04/06 09:49:16;;;;;;;7.55;3.60;;;564.10;742.40;;;;;;5096216;28;20051;-67
2022/04/06 09:51:43;;;;;;;6.55;3.55;;;564.00;742.40;;;;;;5095577;28;20492;-66
2022/04/06 09:54:12;;;;;;;6.70;3.58;;;564.00;742.40;;;;;;5095585;28;20072;-67
2022/04/06 09:56:39;;;;;;;8.68;2.95;;;564.10;742.40;;;;;;5095446;28;20051;-67
2022/04/06 09:59:06;;;;;;;3.95;2.65;;;588.80;716.80;;;;;;5095548;28;20085;-66
2022/04/06 10:01:34;;;;;;;4.20;2.83;;;588.80;691.20;;;;;;5095684;28;20099;-66
2022/04/06 10:04:22;;;;;;;7.40;3.08;;;588.80;716.80;;;;;;5095544;28;20383;-66
2022/04/06 10:06:49;;;;;;;5.18;3.40;;;588.80;691.20;;;;;;5095094;28;20016;-66
2022/04/06 10:09:30;;;;;;;12.63;3.83;;;588.90;716.80;;;;;;5094905;28;20028;-67
2022/04/06 10:11:58;;;;;;;7.13;3.50;;;589.00;742.40;;;;;;5094705;28;20024;-65
2022/04/06 10:14:25;;;;;;;5.63;3.35;;;589.10;716.80;;;;;;5094978;28;20043;-66
2022/04/06 10:16:51;;;;;;;7.60;3.22;;;589.20;716.80;;;;;;5094080;28;20373;-66
2022/04/06 10:19:19;;;;;;;8.55;3.35;;;589.20;716.80;;;;;;5095257;28;20028;-66
2022/04/06 10:21:59;;;;;;;4.47;2.97;;;589.30;691.20;;;;;;5095361;28;20024;-65
2022/04/06 10:24:48;;;;;;;6.57;3.60;;;589.30;742.40;;;;;;5095203;28;20024;-67
2022/04/06 10:27:41;;;;;;;7.10;3.30;;;589.50;691.20;;;;;;5094895;28;20079;-67
2022/04/06 10:30:07;;;;;;;4.50;2.88;;;589.40;665.60;;;;;;5094563;28;20031;-66
2022/04/06 10:32:38;;;;;;;5.15;2.97;;;589.30;665.60;;;;;;5095022;28;20044;-67
2022/04/06 10:35:24;;;;;;;3.75;2.60;;;589.20;665.60;;;;;;5094947;28;20031;-67
2022/04/06 10:38:14;;;;;;;4.20;2.80;;;589.30;691.20;;;;;;5094760;28;20030;-67
2022/04/06 10:40:46;;;;;;;4.07;2.40;;;589.40;665.60;;;;;;5094695;28;20453;-67
2022/04/06 10:43:36;;;;;;;3.55;2.55;;;589.40;665.60;;;;;;5094715;28;20020;-67
2022/04/06 10:46:10;;;;;;;3.67;2.60;;;589.50;665.60;;;;;;5095297;28;20016;-66
2022/04/06 10:48:58;;;;;;;5.10;2.58;;;589.40;691.20;;;;;;5094759;28;20031;-66
2022/04/06 10:51:37;;;;;;;3.50;2.60;;;589.50;691.20;;;;;;5094592;28;20024;-67
2022/04/06 10:54:14;;;;;;;3.85;2.80;;;589.50;691.20;;;;;;5094395;28;20040;-66
2022/04/06 10:56:46;;;;;;;6.03;2.70;;;589.60;691.20;;;;;;5094494;28;20154;-67
2022/04/06 10:59:25;;;;;;;8.77;2.63;;;589.60;665.60;;;;;;5094484;28;20024;-63
2022/04/06 11:02:10;;;;;;;4.07;2.50;;;589.60;691.20;;;;;;5094265;28;20024;-64
2022/04/06 11:04:42;;;;;;;5.07;2.92;;;589.60;691.20;;;;;;5094433;28;20025;-64
2022/04/06 11:07:09;;;;;;;5.55;2.95;;;589.60;665.60;;;;;;5092506;28;20385;-64
2022/04/06 11:12:32;;;;;;;4.82;3.13;;;589.60;716.80;;;;;;5094222;28;20039;-64
2022/04/06 11:15:01;;;;;;;6.88;2.60;;;589.50;691.20;;;;;;5094265;28;20362;-65
2022/04/06 11:17:41;;;;;;;4.32;2.75;;;589.60;691.20;;;;;;5093815;28;20024;-64
2022/04/06 11:20:32;;;;;;;6.35;3.22;;;589.50;691.20;;;;;;5093755;28;20435;-61
2022/04/06 11:22:58;;;;;;;5.68;3.47;;;589.50;691.20;;;;;;5093561;28;20024;-64
2022/04/06 11:25:27;;;;;;;17.90;4.05;;;589.60;691.20;;;;;;5092076;28;20028;-63
2022/04/06 11:27:55;;;;;;;8.13;3.42;;;589.60;716.80;;;;;;5092858;28;20032;-63
2022/04/06 11:30:23;;;;;;;5.07;3.42;;;589.60;665.60;;;;;;5093373;28;20032;-63
2022/04/06 11:32:54;;;;;;;6.15;3.53;;;589.70;665.60;;;;;;5093261;28;20122;-63
2022/04/06 11:35:28;;;;;;;4.22;2.97;;;614.40;665.60;;;;;;5092509;28;20054;-63
2022/04/06 11:37:54;;;;;;;6.07;3.35;;;614.40;691.20;;;;;;5093522;28;20043;-64
2022/04/06 11:40:28;;;;;;;3.72;2.78;;;614.50;691.20;;;;;;5093620;28;20493;-64
2022/04/06 11:42:56;;;;;;;5.93;3.00;;;614.50;691.20;;;;;;5093882;28;20036;-65
2022/04/06 11:45:30;;;;;;;7.25;2.47;;;614.50;640.00;;;;;;5093951;28;20430;-65
2022/04/06 11:48:01;;;;;;;4.60;2.60;;;614.50;665.60;;;;;;5093941;28;20469;-65
2022/04/06 11:50:35;;;;;;;3.13;2.67;;;614.60;691.20;;;;;;5093899;28;20028;-65
2022/04/06 11:53:15;;;;;;;5.80;3.10;;;614.50;665.60;;;;;;5093560;28;20550;-65
2022/04/06 11:55:53;;;;;;;3.63;2.78;;;614.60;665.60;;;;;;5093659;28;20028;-65
2022/04/06 11:58:30;;;;;;;4.18;2.75;;;614.50;665.60;;;;;;5093748;28;20051;-65
2022/04/06 12:01:10;;;;;;;5.93;3.10;;;614.60;640.00;;;;;;5093837;28;20377;-64
2022/04/06 12:03:38;;;;;;;8.40;2.60;;;614.70;665.60;;;;;;5093633;28;20416;-65
2022/04/06 12:06:07;;;;;;;6.88;2.50;;;614.70;665.60;;;;;;5093654;28;20032;-65
2022/04/06 12:08:33;;;;;;;4.65;2.45;;;614.90;640.00;;;;;;5093381;28;20485;-65
2022/04/06 12:11:00;;;;;;;5.93;3.13;;;614.70;640.00;;;;;;5093347;28;20036;-65
2022/04/06 12:13:29;;;;;;;6.25;2.60;;;614.80;640.00;;;;;;5093642;28;20032;-65
2022/04/06 12:15:55;;;;;;;4.10;2.45;;;614.90;640.00;;;;;;5092238;28;20469;-65
2022/04/06 12:18:23;;;;;;;5.80;2.75;;;614.90;640.00;;;;;;5093261;28;20032;-64
2022/04/06 12:20:50;;;;;;;5.97;2.70;;;614.80;640.00;;;;;;5093077;28;20104;-65
2022/04/06 12:23:20;;;;;;;5.32;2.72;;;614.80;640.00;;;;;;5093314;28;20032;-65